Time;durP1;ratioP1;P1;durP2;ratioP2;P2;SDS_P1;SDS_P2;PMS_P1;PMS_P2;Temp;Humidity;BMP_temperature;BMP_pressure;BME280_temperature;BME280_humidity;BME280_pressure;Samples;Min_cycle;Max_cycle;Signal;HPM_P1;HPM_P2
2022/12/11 00:01:13;;;;;;;;;23.25;20.75;;;;;-1.40;74.41;100224.59;5065294;28;46219;-90
2022/12/11 00:03:39;;;;;;;;;24.75;20.00;;;;;-2.33;74.85;100066.09;5065092;28;45248;-90
2022/12/11 00:06:07;;;;;;;;;23.75;19.00;;;;;-1.03;75.26;100303.28;5064671;28;45380;-90
2022/12/11 00:08:33;;;;;;;;;33.00;24.50;;;;;-0.16;74.91;100450.59;5064487;28;45348;-89
2022/12/11 00:10:58;;;;;;;;;26.00;22.75;;;;;-0.62;75.03;100376.00;5062762;28;46262;-90
2022/12/11 00:13:23;;;;;;;;;25.75;22.00;;;;;-0.73;75.06;100354.09;5061081;28;45336;-91
2022/12/11 00:15:49;;;;;;;;;21.25;18.50;;;;;-0.92;74.67;100332.06;5082677;28;45629;-90
2022/12/11 00:18:14;;;;;;;;;23.25;18.25;;;;;-2.06;74.80;100125.44;5061681;28;45324;-91
2022/12/11 00:20:40;;;;;;;;;19.00;16.00;;;;;-1.56;74.97;100222.47;5060285;28;47168;-90
2022/12/11 00:23:06;;;;;;;;;32.75;23.50;;;;;-0.46;75.05;100416.16;5057317;28;45544;-90
2022/12/11 00:25:31;;;;;;;;;3.50;2.00;;;;;-0.78;75.00;100337.56;5076186;28;45303;-89
2022/12/11 00:27:57;;;;;;;;;26.50;20.75;;;;;-0.43;75.25;100397.16;5052581;28;45327;-90
2022/12/11 00:30:22;;;;;;;;;24.50;21.00;;;;;-0.59;74.96;100357.88;5062048;28;47278;-90
2022/12/11 00:32:50;;;;;;;;;31.50;22.25;;;;;-0.11;74.60;100460.22;5043756;28;45300;-90
2022/12/11 00:35:16;;;;;;;;;21.50;19.00;;;;;-1.72;74.84;100172.88;5049332;28;45424;-91
2022/12/11 00:37:41;;;;;;;;;21.75;19.25;;;;;-1.35;74.62;100238.56;5062685;28;45549;-91
2022/12/11 00:40:07;;;;;;;;;21.75;19.50;;;;;-1.06;74.57;100313.59;5034512;28;47905;-89
2022/12/11 00:42:33;;;;;;;;;17.75;15.50;;;;;-1.21;75.19;100297.66;5018797;28;45525;-88
2022/12/11 00:44:58;;;;;;;;;23.50;18.50;;;;;-0.33;75.23;100447.59;5041290;28;45323;-89
2022/12/11 00:47:23;;;;;;;;;19.25;18.50;;;;;-1.86;74.80;100182.06;5057111;28;45553;-88
2022/12/11 00:49:49;;;;;;;;;24.75;19.00;;;;;-0.48;75.11;100423.03;5038389;28;47889;-88
2022/12/11 00:52:16;;;;;;;;;22.75;17.25;;;;;-0.96;74.97;100357.03;5034035;28;45536;-88
2022/12/11 00:54:42;;;;;;;;;25.00;19.50;;;;;-0.75;75.64;100393.00;5052797;28;44742;-87
2022/12/11 00:57:07;;;;;;;;;23.00;22.25;;;;;-1.29;75.78;100320.78;5033797;28;45442;-87
2022/12/11 00:59:33;;;;;;;;;17.75;16.00;;;;;-1.81;75.52;100216.72;5047448;28;47315;-88
2022/12/11 01:01:58;;;;;;;;;26.75;14.75;;;;;-2.51;75.10;100092.41;5063355;28;45379;-86
2022/12/11 01:04:24;;;;;;;;;20.75;14.00;;;;;-1.82;75.43;100209.81;5061840;28;45737;-88
2022/12/11 01:06:49;;;;;;;;;26.50;22.25;;;;;-1.73;75.81;100245.41;5058745;28;45390;-88
2022/12/11 01:11:58;;;;;;;;;20.00;20.00;;;;;-1.07;75.54;100354.19;5059733;28;45288;-88
2022/12/11 01:14:25;;;;;;;;;25.25;21.25;;;;;-0.67;75.54;100411.34;5046957;28;45431;-87
2022/12/11 01:16:50;;;;;;;;;20.25;19.25;;;;;-1.40;75.56;100280.78;5060204;28;45591;-88
2022/12/11 01:19:16;;;;;;;;;26.50;18.50;;;;;-1.66;75.32;100222.25;5064285;28;45612;-89
2022/12/11 01:21:41;;;;;;;;;16.25;15.00;;;;;-2.02;75.35;100171.31;5064433;28;45366;-89
2022/12/11 01:24:07;;;;;;;;;26.75;22.00;;;;;-1.67;75.06;100230.91;5064443;28;45464;-89
2022/12/11 01:26:33;;;;;;;;;31.00;23.25;;;;;-2.26;75.60;100127.56;5068132;28;45414;-89
2022/12/11 01:28:59;;;;;;;;;28.25;19.50;;;;;-1.49;75.91;100265.88;5076491;28;46627;-88
2022/12/11 01:31:24;;;;;;;;;18.25;15.25;;;;;-1.46;75.81;100260.75;5058393;28;45431;-88
2022/12/11 01:33:53;;;;;;;;;18.25;14.25;;;;;-1.29;75.70;100290.56;5059873;28;45503;-89
2022/12/11 01:36:20;;;;;;;;;21.75;15.50;;;;;-2.74;75.77;100043.53;5059047;28;45320;-88
2022/12/11 01:38:48;;;;;;;;;20.75;16.25;;;;;-0.67;75.63;100406.16;5055220;28;46348;-88
2022/12/11 01:41:16;;;;;;;;;17.25;14.25;;;;;-0.67;75.77;100424.31;5062584;28;45459;-87
2022/12/11 01:44:02;;;;;;;;;16.00;13.25;;;;;-0.74;76.18;100410.34;5076804;28;45250;-89
2022/12/11 01:46:30;;;;;;;;;15.25;12.25;;;;;-1.79;75.51;100240.97;5078964;28;45296;-88
2022/12/11 01:48:58;;;;;;;;;17.25;11.25;;;;;-2.00;75.62;100226.63;5055794;28;46286;-88
2022/12/11 01:51:23;;;;;;;;;12.50;12.50;;;;;-1.75;76.05;100260.91;5064282;28;45438;-89
2022/12/11 01:53:58;;;;;;;;;14.00;14.00;;;;;-1.05;75.79;100369.78;5048840;28;45444;-87
2022/12/11 01:56:24;;;;;;;;;11.25;11.25;;;;;-1.16;76.02;100355.72;5040479;28;45253;-88
2022/12/11 01:58:55;;;;;;;;;18.00;14.75;;;;;-1.62;75.95;100277.66;5050875;28;46311;-87
2022/12/11 02:01:44;;;;;;;;;19.25;15.75;;;;;-1.07;75.89;100358.50;5061085;28;45723;-89
2022/12/11 02:04:11;;;;;;;;;13.00;9.25;;;;;-1.99;75.57;100206.78;5061915;28;45318;-89
2022/12/11 02:06:42;;;;;;;;;13.25;9.75;;;;;-0.65;75.74;100420.06;5059838;28;45268;-89
2022/12/11 02:09:12;;;;;;;;;17.25;14.25;;;;;-0.64;75.32;100416.59;5057018;28;46332;-88
2022/12/11 02:11:56;;;;;;;;;22.00;17.50;;;;;-0.63;75.73;100407.13;5054584;28;45548;-89
2022/12/11 02:14:29;;;;;;;;;28.25;18.50;;;;;-1.22;75.20;100306.28;5059620;28;45266;-89
2022/12/11 02:17:12;;;;;;;;;17.75;17.75;;;;;-0.60;75.78;100415.84;5045607;28;45549;-89
2022/12/11 02:20:16;;;;;;;;;23.00;18.75;;;;;-0.61;75.54;100410.63;5064890;28;46648;-89
2022/12/11 02:23:19;;;;;;;;;17.25;15.00;;;;;-0.66;75.66;100413.13;5063981;28;45543;-88
2022/12/11 02:25:57;;;;;;;;;18.25;12.25;;;;;-0.68;75.81;100406.13;5063037;28;45552;-89
2022/12/11 02:28:35;;;;;;;;;15.75;14.25;;;;;-1.34;76.02;100307.72;5078720;28;45420;-89
2022/12/11 02:31:12;;;;;;;;;20.75;12.25;;;;;-2.01;75.41;100196.38;5078550;28;47140;-89
2022/12/11 02:33:58;;;;;;;;;20.25;12.00;;;;;-1.66;75.94;100258.56;5093892;28;45439;-89
2022/12/11 02:36:28;;;;;;;;;11.75;11.75;;;;;-2.15;75.45;100180.50;5072239;28;45466;-88
2022/12/11 02:38:57;;;;;;;;;16.75;14.75;;;;;-1.15;75.63;100360.06;5061909;28;45427;-90
2022/12/11 02:41:26;;;;;;;;;19.25;14.25;;;;;-1.15;75.85;100371.31;5044792;28;48406;-87
2022/12/11 02:43:54;;;;;;;;;6.50;6.50;;;;;-1.91;75.65;100230.28;5043839;28;45387;-87
2022/12/11 02:46:21;;;;;;;;;13.75;13.25;;;;;-1.37;76.08;100325.81;5064657;28;45265;-87
2022/12/11 02:48:50;;;;;;;;;16.50;13.25;;;;;-1.37;75.22;100348.28;5088167;28;45362;-87
2022/12/11 02:51:24;;;;;;;;;23.25;16.00;;;;;-2.84;75.70;100090.69;5081393;28;45373;-87
2022/12/11 02:53:53;;;;;;;;;13.25;10.50;;;;;-1.89;75.37;100218.25;5077782;28;45593;-90
2022/12/11 02:56:25;;;;;;;;;14.75;14.00;;;;;-2.00;75.72;100195.53;5078741;28;45520;-88
2022/12/11 02:58:56;;;;;;;;;16.00;14.00;;;;;-0.91;75.80;100386.59;5061433;28;45461;-89
2022/12/11 03:01:22;;;;;;;;;15.50;12.50;;;;;-2.66;75.93;100081.66;5079185;28;47154;-89
2022/12/11 03:03:48;;;;;;;;;10.25;4.75;;;;;-2.02;75.43;100197.22;5078000;28;45295;-89
2022/12/11 03:06:19;;;;;;;;;21.50;14.25;;;;;-1.52;75.25;100270.97;5059052;28;45293;-89
2022/12/11 03:08:45;;;;;;;;;6.00;4.50;;;;;-1.69;75.60;100232.56;5061287;28;45347;-89
2022/12/11 03:11:13;;;;;;;;;15.00;10.75;;;;;-2.58;75.67;100086.22;5080489;28;45400;-89
2022/12/11 03:13:41;;;;;;;;;15.25;11.50;;;;;-3.45;75.90;99938.25;5069045;28;45440;-91
2022/12/11 03:16:18;;;;;;;;;16.00;11.25;;;;;-1.43;75.63;100273.78;5089310;28;44741;-89
2022/12/11 03:18:50;;;;;;;;;15.00;11.00;;;;;-0.86;75.67;100375.44;5081729;28;45478;-89
2022/12/11 03:21:43;;;;;;;;;16.00;11.75;;;;;-2.53;75.48;100110.47;5076739;28;46438;-87
2022/12/11 03:24:17;;;;;;;;;12.75;10.50;;;;;-1.30;75.48;100288.81;5065546;28;45332;-86
2022/12/11 03:26:49;;;;;;;;;19.00;14.00;;;;;-0.84;75.47;100360.78;5079447;28;45424;-89
2022/12/11 03:29:19;;;;;;;;;13.50;12.25;;;;;-2.65;75.77;100070.50;5071577;28;45334;-89
2022/12/11 03:31:55;;;;;;;;;14.50;13.00;;;;;-1.02;75.74;100336.13;5072276;28;48169;-87
2022/12/11 03:34:36;;;;;;;;;15.00;11.75;;;;;-2.56;75.58;100084.53;5078266;28;45453;-88
2022/12/11 03:37:04;;;;;;;;;18.00;13.25;;;;;-2.74;75.63;100079.75;5066213;28;45403;-89
2022/12/11 03:39:38;;;;;;;;;13.00;11.00;;;;;-1.02;76.21;100377.66;5075828;28;45319;-88
2022/12/11 03:42:08;;;;;;;;;13.25;9.25;;;;;-2.02;75.86;100197.22;5072128;28;47358;-88
2022/12/11 03:44:35;;;;;;;;;14.75;13.25;;;;;-2.26;76.19;100170.69;5061678;28;45429;-88
2022/12/11 03:47:05;;;;;;;;;10.75;9.75;;;;;-2.51;75.87;100149.34;5062908;28;45281;-87
2022/12/11 03:49:35;;;;;;;;;12.25;10.75;;;;;-2.13;75.47;100216.78;5064979;28;45512;-90
2022/12/11 03:52:03;;;;;;;;;8.00;8.00;;;;;-3.19;75.61;100036.31;5089778;28;47185;-91
2022/12/11 03:54:30;;;;;;;;;7.00;7.00;;;;;-3.76;75.49;99927.09;5072127;28;45261;-91
2022/12/11 03:57:00;;;;;;;;;11.25;10.50;;;;;-1.33;76.02;100347.53;5072546;28;44856;-90
2022/12/11 03:59:26;;;;;;;;;16.00;13.75;;;;;-2.07;75.83;100213.47;5076162;28;45560;-90
2022/12/11 04:01:52;;;;;;;;;14.00;8.75;;;;;-3.03;75.43;100046.22;5075700;28;45448;-89
2022/12/11 04:04:20;;;;;;;;;14.75;12.25;;;;;-1.32;75.80;100350.16;5073504;28;45231;-92
2022/12/11 04:06:46;;;;;;;;;10.00;10.00;;;;;-2.21;75.94;100201.06;5053675;28;45332;-91
2022/12/11 04:09:12;;;;;;;;;16.00;13.75;;;;;-1.23;75.93;100377.13;5056031;28;45442;-92
2022/12/11 04:11:38;;;;;;;;;12.00;10.25;;;;;-2.74;76.18;100125.47;5077388;28;47304;-91
2022/12/11 04:16:55;;;;;;;;;9.00;9.00;;;;;-2.48;76.67;100175.31;5076520;28;44659;-91
2022/12/11 04:24:14;;;;;;;;;14.75;10.75;;;;;-2.24;76.66;100226.00;5061661;28;45505;-92
2022/12/11 04:24:59;;;;;;;;;11.75;11.00;;;;;-2.92;76.41;100118.94;5066727;28;44781;-91
2022/12/11 04:30:14;;;;;;;;;14.50;11.50;;;;;-2.95;76.40;100120.56;5066318;28;45197;-91
2022/12/11 04:32:40;;;;;;;;;13.50;11.50;;;;;-2.04;76.52;100266.22;5066764;28;45551;-91
2022/12/11 04:35:07;;;;;;;;;12.25;10.25;;;;;-1.93;75.96;100276.00;5052865;28;45519;-92
2022/12/11 04:37:33;;;;;;;;;7.25;5.00;;;;;-2.73;76.87;100159.13;5068325;28;45262;-91
2022/12/11 04:39:59;;;;;;;;;15.25;10.50;;;;;-2.59;77.01;100197.47;5084164;28;45252;-92
2022/12/11 04:42:25;;;;;;;;;8.00;4.25;;;;;-2.12;77.36;100280.72;5067031;28;47754;-92
2022/12/11 04:44:51;;;;;;;;;14.00;11.25;;;;;-2.47;76.73;100202.09;5064263;28;45516;-92
2022/12/11 04:47:17;;;;;;;;;13.00;10.00;;;;;-1.91;76.46;100284.69;5066651;28;45430;-92
2022/12/11 04:49:43;;;;;;;;;15.25;9.00;;;;;-3.40;77.27;100029.72;5064377;28;45592;-92
2022/12/11 04:52:09;;;;;;;;;12.25;10.00;;;;;-2.76;76.78;100128.00;5059872;28;45505;-89
2022/12/11 04:54:35;;;;;;;;;6.50;6.50;;;;;-2.33;76.85;100199.00;5057408;28;45450;-89
2022/12/11 04:57:00;;;;;;;;;20.25;13.25;;;;;-2.52;77.13;100173.47;5058905;28;45573;-88
2022/12/11 04:59:25;;;;;;;;;10.75;9.00;;;;;-1.80;77.14;100291.03;5064107;28;45261;-89
2022/12/11 05:01:51;;;;;;;;;13.75;11.25;;;;;-2.03;77.08;100286.13;5078556;28;48142;-87
2022/12/11 05:04:16;;;;;;;;;11.50;9.50;;;;;-3.57;77.64;100011.19;5066914;28;45366;-87
2022/12/11 05:06:42;;;;;;;;;12.50;10.50;;;;;-2.54;77.25;100185.50;5081989;28;45266;-88
2022/12/11 05:09:11;;;;;;;;;7.25;7.25;;;;;-1.84;77.76;100310.81;5074455;28;45562;-88
2022/12/11 05:11:37;;;;;;;;;10.00;10.00;;;;;-1.77;77.17;100327.41;5055955;28;48440;-87
2022/12/11 05:14:02;;;;;;;;;8.50;7.50;;;;;-1.76;76.72;100323.97;5038779;28;45425;-89
2022/12/11 05:16:28;;;;;;;;;13.25;12.00;;;;;-2.55;76.93;100188.91;5042731;28;45423;-88
2022/12/11 05:18:53;;;;;;;;;13.25;12.25;;;;;-2.17;76.92;100270.22;5054297;28;45505;-88
2022/12/11 05:21:19;;;;;;;;;12.25;12.25;;;;;-3.06;76.63;100097.00;5036720;28;47039;-88
2022/12/11 05:23:44;;;;;;;;;11.25;11.25;;;;;-1.73;77.20;100303.31;5041959;28;45347;-89
2022/12/11 05:26:13;;;;;;;;;18.50;13.00;;;;;-1.57;77.20;100314.06;5038110;28;45645;-89
2022/12/11 05:28:40;;;;;;;;;13.50;13.50;;;;;-2.53;77.01;100144.13;5046721;28;45395;-88
2022/12/11 05:31:10;;;;;;;;;10.25;8.50;;;;;-3.47;76.71;99990.75;5067062;28;47427;-89
2022/12/11 05:33:35;;;;;;;;;15.50;11.00;;;;;-3.05;77.06;100084.13;5065262;28;45533;-89
2022/12/11 05:36:02;;;;;;;;;15.00;14.00;;;;;-1.64;77.61;100324.28;5084577;28;45277;-90
2022/12/11 05:38:27;;;;;;;;;18.00;15.75;;;;;-1.66;77.26;100345.81;5085105;28;45169;-89
2022/12/11 05:41:01;;;;;;;;;9.50;7.75;;;;;-1.72;77.32;100319.75;5079374;28;46153;-90
2022/12/11 05:43:28;;;;;;;;;8.50;7.25;;;;;-2.37;77.14;100220.50;5061943;28;45295;-89
2022/12/11 05:45:55;;;;;;;;;10.75;8.75;;;;;-2.23;76.74;100230.31;5028061;28;45345;-88
2022/12/11 05:48:22;;;;;;;;;13.50;10.50;;;;;-2.92;76.57;100110.31;5055164;28;45663;-89
2022/12/11 05:50:57;;;;;;;;;14.00;10.00;;;;;-3.51;77.37;100004.41;5084326;28;45478;-89
2022/12/11 05:53:23;;;;;;;;;19.00;12.00;;;;;-2.15;76.85;100239.19;5084335;28;45300;-89
2022/12/11 05:55:48;;;;;;;;;9.25;9.25;;;;;-3.01;77.27;100076.44;5064898;28;45375;-90
2022/12/11 05:58:15;;;;;;;;;14.75;14.00;;;;;-1.87;77.53;100269.25;5086125;28;45413;-89
2022/12/11 06:00:41;;;;;;;;;16.50;12.50;;;;;-2.49;77.11;100165.78;5086512;28;45367;-89
2022/12/11 06:03:07;;;;;;;;;13.50;13.00;;;;;-2.73;77.42;100147.91;5064848;28;46020;-90
2022/12/11 06:05:41;;;;;;;;;15.75;15.75;;;;;-2.07;77.43;100255.78;5078898;28;45225;-89
2022/12/11 06:08:06;;;;;;;;;13.25;10.75;;;;;-1.71;76.93;100327.56;5057877;28;45715;-88
2022/12/11 06:10:34;;;;;;;;;17.00;12.50;;;;;-2.98;76.95;100118.78;5080878;28;47623;-90
2022/12/11 06:13:00;;;;;;;;;9.00;4.00;;;;;-2.27;77.42;100205.22;5064529;28;45304;-89
2022/12/11 06:15:27;;;;;;;;;13.00;11.50;;;;;-1.70;76.90;100308.59;5087528;28;44851;-92
2022/12/11 06:17:53;;;;;;;;;14.25;13.00;;;;;-4.16;77.37;99889.84;5075696;28;44817;-92
2022/12/11 06:20:20;;;;;;;;;22.25;17.00;;;;;-2.77;76.92;100146.94;5091736;28;45408;-92
2022/12/11 06:22:53;;;;;;;;;22.00;13.25;;;;;-3.20;76.93;100057.84;5093366;28;45183;-92
2022/12/11 06:25:18;;;;;;;;;15.75;13.75;;;;;-1.78;76.81;100317.84;5085373;28;45369;-92
2022/12/11 06:27:44;;;;;;;;;20.75;19.25;;;;;-2.68;76.85;100152.34;5095833;28;45421;-92
2022/12/11 06:30:10;;;;;;;;;21.00;19.50;;;;;-3.07;76.95;100065.09;5093899;28;45926;-92
2022/12/11 06:32:40;;;;;;;;;19.75;19.75;;;;;-2.91;76.82;100097.41;5091002;28;44737;-92
2022/12/11 06:35:21;;;;;;;;;26.75;22.75;;;;;-2.26;76.84;100219.88;5094713;28;45407;-92
2022/12/11 06:37:46;;;;;;;;;26.25;20.00;;;;;-2.12;77.09;100207.31;5093136;28;44860;-92
2022/12/11 06:40:12;;;;;;;;;29.75;21.50;;;;;-4.06;76.99;99890.09;5090195;28;47209;-93
2022/12/11 06:42:43;;;;;;;;;5.00;2.50;;;;;-2.74;76.78;100103.03;5076106;28;45268;-93
2022/12/11 06:45:10;;;;;;;;;25.75;19.75;;;;;-3.46;76.62;99993.38;5077005;28;45400;-93
2022/12/11 06:47:36;;;;;;;;;15.00;13.50;;;;;-2.40;76.75;100163.47;5076804;28;45329;-92
2022/12/11 06:50:03;;;;;;;;;27.00;21.25;;;;;-1.63;76.77;100294.91;5053937;28;46249;-91
2022/12/11 06:52:28;;;;;;;;;24.25;22.75;;;;;-2.21;76.68;100180.34;5070402;28;45380;-92
2022/12/11 06:54:55;;;;;;;;;27.50;22.00;;;;;-4.24;76.27;99831.94;5086172;28;45246;-92
2022/12/11 06:57:21;;;;;;;;;26.50;19.75;;;;;-3.19;76.37;100032.84;5098348;28;44908;-93
2022/12/11 06:59:46;;;;;;;;;23.75;19.50;;;;;-1.57;76.61;100293.34;5078929;28;47687;-93
2022/12/11 07:02:14;;;;;;;;;36.75;26.25;;;;;-3.71;76.59;99913.44;5092326;28;45189;-93
2022/12/11 07:04:41;;;;;;;;;34.50;27.25;;;;;-2.40;76.58;100135.00;5076045;28;45245;-93
2022/12/11 07:07:07;;;;;;;;;33.00;29.50;;;;;-2.90;76.62;100060.38;5101031;27;45536;-93
2022/12/11 07:09:39;;;;;;;;;33.50;29.50;;;;;-2.92;76.90;100063.75;5081562;28;47298;-93
2022/12/11 07:12:06;;;;;;;;;22.75;18.00;;;;;-1.60;77.19;100299.31;5081922;28;46256;-93
2022/12/11 07:14:36;;;;;;;;;28.50;24.25;;;;;-1.62;76.92;100282.84;5093886;28;45261;-92
2022/12/11 07:17:09;;;;;;;;;33.75;32.50;;;;;-2.95;76.47;100059.38;5094117;28;45343;-94
2022/12/11 07:19:35;;;;;;;;;24.50;17.50;;;;;-3.25;76.64;100030.97;5056441;28;45638;-94
2022/12/11 07:22:01;;;;;;;;;32.00;29.00;;;;;-2.93;76.56;100085.28;5088239;28;45258;-94
2022/12/11 07:35:01;;;;;;;;;28.25;24.50;;;;;-1.71;76.58;100311.13;5030973;28;45603;-94
2022/12/11 07:37:27;;;;;;;;;33.25;30.25;;;;;-1.71;76.25;100301.63;5024284;28;45434;-93
2022/12/11 07:39:54;;;;;;;;;40.75;33.50;;;;;-3.68;76.34;99967.78;4990714;28;45509;-94
2022/12/11 07:42:29;;;;;;;;;33.50;25.75;;;;;-3.02;76.30;100085.91;5018969;28;46571;-92
2022/12/11 07:45:03;;;;;;;;;31.75;28.00;;;;;-2.22;76.93;100245.03;5021990;28;45431;-95
2022/12/11 07:51:39;;;;;;;;;29.00;25.75;;;;;-4.34;76.35;99863.47;4971392;28;44902;-94
2022/12/11 07:54:11;;;;;;;;;33.50;30.00;;;;;-3.10;76.04;100085.72;4974426;28;46348;-93
2022/12/11 07:56:37;;;;;;;;;33.50;26.75;;;;;-2.96;76.38;100086.09;4942074;28;45245;-92
2022/12/11 07:59:05;;;;;;;;;30.00;26.75;;;;;-1.65;76.59;100294.00;4971802;28;44942;-92
2022/12/11 08:01:36;;;;;;;;;29.50;24.75;;;;;-2.94;76.51;100091.28;4970197;28;45029;-93
2022/12/11 08:04:06;;;;;;;;;36.25;32.50;;;;;-2.38;76.46;100185.09;4975422;28;46791;-90
2022/12/11 08:06:34;;;;;;;;;31.00;26.00;;;;;-2.98;76.30;100074.81;4984099;28;45482;-93
2022/12/11 08:09:10;;;;;;;;;28.00;24.50;;;;;-2.99;76.29;100082.53;4971816;28;45443;-91
2022/12/11 08:11:38;;;;;;;;;30.75;29.75;;;;;-2.38;76.19;100161.78;4997767;28;45566;-92
2022/12/11 08:14:05;;;;;;;;;29.25;23.00;;;;;-2.10;76.30;100224.63;4995697;28;46731;-93
2022/12/11 08:16:31;;;;;;;;;29.50;20.25;;;;;-2.47;75.93;100176.22;4995031;28;45308;-93
2022/12/11 08:19:06;;;;;;;;;35.50;16.75;;;;;-1.54;76.43;100306.38;4993570;28;44879;-93
2022/12/11 08:21:37;;;;;;;;;36.50;26.25;;;;;-1.55;76.52;100315.88;4998078;28;45366;-93
2022/12/11 08:24:03;;;;;;;;;31.00;28.00;;;;;-2.49;76.20;100152.84;5029330;28;46094;-92
2022/12/11 08:26:32;;;;;;;;;31.00;27.50;;;;;-2.98;76.04;100079.09;5071192;28;45193;-94
2022/12/11 08:29:00;;;;;;;;;32.25;26.25;;;;;-3.42;75.92;100000.38;5086619;28;45263;-94
2022/12/11 08:31:26;;;;;;;;;32.50;27.00;;;;;-2.81;76.16;100082.13;5085188;28;45285;-92
2022/12/11 08:33:58;;;;;;;;;28.50;24.75;;;;;-1.52;76.06;100334.09;5088549;28;45576;-95
2022/12/11 08:36:26;;;;;;;;;34.75;28.00;;;;;-2.85;75.83;100076.03;5089788;28;45376;-92
2022/12/11 08:38:54;;;;;;;;;22.25;21.25;;;;;-1.54;76.31;100320.19;5093443;28;45173;-94
2022/12/11 08:41:23;;;;;;;;;27.75;24.00;;;;;-1.75;75.91;100294.63;5070140;28;44805;-93
2022/12/11 08:43:53;;;;;;;;;31.25;23.50;;;;;-1.71;75.94;100301.63;5072234;28;47134;-91
2022/12/11 08:46:21;;;;;;;;;32.25;27.25;;;;;-2.83;76.04;100095.03;5091353;28;45303;-93
2022/12/11 08:48:48;;;;;;;;;29.75;24.00;;;;;-1.47;76.02;100310.88;5073813;28;45412;-92
2022/12/11 08:51:23;;;;;;;;;34.50;31.75;;;;;-3.87;75.71;99914.72;5068559;28;45456;-94
2022/12/11 08:53:50;;;;;;;;;32.75;28.25;;;;;-1.50;75.54;100309.06;5073129;28;45358;-93
2022/12/11 08:56:20;;;;;;;;;31.00;24.50;;;;;-3.62;76.22;99944.69;5089243;28;45271;-92
2022/12/11 08:58:46;;;;;;;;;24.50;21.75;;;;;-2.32;75.95;100167.13;5068061;28;45213;-92
2022/12/11 09:01:20;;;;;;;;;31.75;26.75;;;;;-2.82;75.83;100073.50;5048343;28;45392;-94
2022/12/11 09:03:53;;;;;;;;;32.00;25.00;;;;;-3.08;75.60;100029.72;5072553;28;46543;-94
2022/12/11 09:06:23;;;;;;;;;38.00;28.75;;;;;-3.58;75.90;99959.47;5061890;28;44688;-93
2022/12/11 09:08:53;;;;;;;;;25.75;21.00;;;;;-2.78;75.77;100072.75;5071735;28;45405;-93
2022/12/11 09:11:58;;;;;;;;;24.75;22.25;;;;;-1.41;75.83;100300.66;5038298;28;45273;-91
2022/12/11 09:14:23;;;;;;;;;15.75;10.50;;;;;-3.04;75.48;100034.16;5077384;28;46717;-91
2022/12/11 09:16:49;;;;;;;;;30.25;28.50;;;;;-1.79;76.08;100241.84;5069946;28;44817;-90
2022/12/11 09:19:15;;;;;;;;;30.00;26.00;;;;;-1.86;75.79;100246.84;5080863;28;45410;-90
2022/12/11 09:21:49;;;;;;;;;39.00;30.00;;;;;-2.68;75.71;100074.72;5070883;28;45316;-89
2022/12/11 09:24:16;;;;;;;;;42.00;34.00;;;;;-2.56;75.88;100094.00;5047562;28;47181;-91
2022/12/11 09:26:41;;;;;;;;;28.00;20.75;;;;;-2.26;75.23;100160.31;5029029;28;45532;-90
2022/12/11 09:29:16;;;;;;;;;26.75;22.00;;;;;-2.09;75.58;100177.19;5072745;28;45555;-90
2022/12/11 09:31:42;;;;;;;;;33.75;27.75;;;;;-3.05;75.71;100019.47;5058616;28;45455;-91
2022/12/11 09:34:11;;;;;;;;;40.50;33.00;;;;;-1.33;75.91;100306.88;5074898;27;47022;-90
2022/12/11 09:36:38;;;;;;;;;31.75;24.25;;;;;-2.34;75.62;100170.50;5060770;28;45561;-91
2022/12/11 09:39:10;;;;;;;;;35.50;26.50;;;;;-3.14;75.79;100008.88;5084580;28;45528;-90
2022/12/11 09:41:46;;;;;;;;;27.50;22.75;;;;;-1.30;75.92;100314.75;5060636;28;45443;-90
2022/12/11 09:44:30;;;;;;;;;30.25;23.75;;;;;-1.76;75.95;100256.59;5079078;28;45440;-90
2022/12/11 09:46:59;;;;;;;;;42.75;30.75;;;;;-1.90;75.96;100237.22;5067409;28;45526;-90
2022/12/11 09:49:34;;;;;;;;;29.50;26.50;;;;;-1.34;75.86;100312.03;5054711;28;45418;-91
2022/12/11 09:52:27;;;;;;;;;33.25;28.50;;;;;-1.38;76.22;100313.69;5058839;28;45648;-91
2022/12/11 09:54:58;;;;;;;;;34.00;25.50;;;;;-2.96;75.70;100059.31;5017145;28;47227;-91
2022/12/11 09:57:42;;;;;;;;;32.25;28.00;;;;;-1.36;75.63;100319.78;5000675;28;45459;-91
2022/12/11 10:00:43;;;;;;;;;33.00;28.25;;;;;-1.84;75.86;100232.19;5007649;28;45379;-91
2022/12/11 10:03:16;;;;;;;;;31.25;24.75;;;;;-1.30;75.95;100311.28;5007457;28;45254;-91
2022/12/11 10:06:04;;;;;;;;;37.75;31.25;;;;;-1.23;75.67;100320.97;5010897;28;46834;-91
2022/12/11 10:08:32;;;;;;;;;34.00;30.50;;;;;-1.97;75.84;100189.56;5017822;28;45436;-89
2022/12/11 10:11:29;;;;;;;;;29.50;26.50;;;;;-1.15;76.23;100340.19;5014097;28;45393;-87
2022/12/11 10:14:15;;;;;;;;;38.50;30.75;;;;;-1.06;75.89;100318.78;4998591;28;45392;-88
2022/12/11 10:16:48;;;;;;;;;31.25;28.25;;;;;-2.21;75.40;100118.19;4988371;28;47014;-90
2022/12/11 10:19:23;;;;;;;;;42.25;31.00;;;;;-1.97;75.33;100128.25;5012521;28;45603;-90
2022/12/11 10:21:54;;;;;;;;;28.50;25.00;;;;;-1.72;75.04;100135.72;4996425;28;45551;-92
2022/12/11 10:24:47;;;;;;;;;28.00;24.75;;;;;-0.57;74.87;100309.44;4998095;28;45517;-90
2022/12/11 10:27:30;;;;;;;;;;;;;;;;;;;;;
2022/12/11 10:30:17;;;;;;;;;29.00;21.75;;;;;-0.85;74.81;100224.06;5016566;28;73100;-90
2022/12/11 10:32:51;;;;;;;;;27.50;23.75;;;;;-0.55;74.49;100240.28;5054005;28;45444;-90
2022/12/11 10:35:31;;;;;;;;;32.75;26.75;;;;;-0.75;74.72;100200.03;5066277;28;45584;-90
2022/12/11 10:38:24;;;;;;;;;25.75;20.50;;;;;-0.60;73.01;100168.31;5075320;28;46661;-88
2022/12/11 10:40:55;;;;;;;;;28.75;22.00;;;;;0.26;74.27;100305.00;5065091;28;45349;-91
2022/12/11 10:43:32;;;;;;;;;25.75;23.50;;;;;0.33;73.05;100308.56;5073412;28;45430;-89
2022/12/11 10:46:01;;;;;;;;;27.50;23.25;;;;;-1.19;73.57;100032.25;5056183;28;45424;-90
2022/12/11 10:48:27;;;;;;;;;26.25;23.50;;;;;-0.21;72.40;100183.75;5065121;28;46214;-90
2022/12/11 11:01:56;;;;;;;;;;;;;;;;;;;;;
2022/12/11 11:05:09;;;;;;;;;38.50;32.50;;;;;0.66;73.56;100294.38;4909834;29;73238;-92
2022/12/11 11:07:46;;;;;;;;;31.50;27.25;;;;;0.33;73.42;100227.97;4917213;28;45295;-88
2022/12/11 11:10:12;;;;;;;;;24.50;23.00;;;;;0.56;72.47;100266.47;4907004;28;44974;-90
2022/12/11 11:13:01;;;;;;;;;37.75;29.25;;;;;0.46;72.81;100271.53;4924119;28;46754;-94
2022/12/11 11:15:38;;;;;;;;;34.25;31.25;;;;;-0.18;73.28;100193.34;4906456;28;45541;-94
2022/12/11 11:18:20;;;;;;;;;24.75;19.50;;;;;-1.89;72.61;99908.19;4873165;29;45568;-91
2022/12/11 11:20:50;;;;;;;;;35.00;31.00;;;;;-1.15;73.45;100044.44;4880462;29;45443;-91
2022/12/11 11:23:27;;;;;;;;;35.50;30.50;;;;;-2.17;72.93;99893.81;4905119;28;47144;-91
2022/12/11 11:29:23;;;;;;;;;32.50;22.50;;;;;0.02;73.69;100258.63;4872166;29;45420;-91
2022/12/11 11:32:04;;;;;;;;;;;;;;;;;;;;;
2022/12/11 11:34:35;;;;;;;;;29.50;26.25;;;;;-1.75;73.59;99956.84;4877026;29;74534;-91
2022/12/11 11:37:04;;;;;;;;;42.75;35.00;;;;;-0.41;73.54;100182.50;4922427;28;45319;-92
2022/12/11 11:39:54;;;;;;;;;35.75;31.00;;;;;-1.25;73.25;100033.00;4923082;28;45446;-91
2022/12/11 11:42:29;;;;;;;;;31.00;23.25;;;;;0.12;73.40;100250.16;4946765;28;45359;-90
2022/12/11 11:45:15;;;;;;;;;27.50;21.00;;;;;-0.29;73.64;100179.25;4962346;28;48052;-92
2022/12/11 11:48:12;;;;;;;;;39.25;29.25;;;;;-0.09;73.33;100209.06;4945467;28;45325;-90
2022/12/11 11:50:45;;;;;;;;;36.75;35.75;;;;;-1.39;73.27;99977.44;4932074;28;45596;-89
2022/12/11 11:53:31;;;;;;;;;32.50;25.50;;;;;0.41;72.96;100244.56;4958754;28;45330;-91
2022/12/11 11:56:23;;;;;;;;;40.75;32.00;;;;;0.48;73.57;100243.81;4943322;28;47028;-90
2022/12/11 11:59:02;;;;;;;;;33.25;30.50;;;;;0.57;73.64;100247.41;4938605;28;45523;-90
2022/12/11 12:01:30;;;;;;;;;32.50;24.25;;;;;-0.57;73.19;100039.41;4946189;28;45509;-90
2022/12/11 12:04:05;;;;;;;;;28.25;24.50;;;;;-0.61;72.69;100037.63;4964613;28;45516;-89
2022/12/11 12:06:56;;;;;;;;;37.75;34.00;;;;;0.07;73.21;100146.97;5018130;28;47213;-92
2022/12/11 12:10:35;;;;;;;;;34.75;32.25;;;;;0.62;73.04;100237.94;5050113;28;45244;-93
2022/12/11 12:13:57;;;;;;;;;39.50;26.75;;;;;0.42;72.56;100165.69;5060787;28;44858;-92